sensor_id;sensor_type;location;lat;lon;timestamp;P1;durP1;ratioP1;P2;durP2;ratioP2
78591;SDS011;67889;48.352;11.392;2023-02-19T00:01:24;2.05;;;1.15;;
78591;SDS011;67889;48.352;11.392;2023-02-19T00:03:54;0.98;;;0.73;;
78591;SDS011;67889;48.352;11.392;2023-02-19T00:06:22;2.05;;;1.02;;
78591;SDS011;67889;48.352;11.392;2023-02-19T00:08:49;1.73;;;0.80;;
78591;SDS011;67889;48.352;11.392;2023-02-19T00:11:19;2.20;;;0.98;;
78591;SDS011;67889;48.352;11.392;2023-02-19T00:13:47;0.90;;;0.60;;
78591;SDS011;67889;48.352;11.392;2023-02-19T00:16:14;0.93;;;0.70;;
78591;SDS011;67889;48.352;11.392;2023-02-19T00:18:42;1.20;;;1.10;;
78591;SDS011;67889;48.352;11.392;2023-02-19T00:21:07;1.10;;;0.88;;
78591;SDS011;67889;48.352;11.392;2023-02-19T00:23:33;1.75;;;1.10;;
78591;SDS011;67889;48.352;11.392;2023-02-19T00:26:06;2.20;;;1.10;;
78591;SDS011;67889;48.352;11.392;2023-02-19T00:28:33;1.27;;;0.90;;
78591;SDS011;67889;48.352;11.392;2023-02-19T00:31:05;1.95;;;0.60;;
78591;SDS011;67889;48.352;11.392;2023-02-19T00:33:39;2.33;;;1.10;;
78591;SDS011;67889;48.352;11.392;2023-02-19T00:36:05;1.33;;;0.93;;
78591;SDS011;67889;48.352;11.392;2023-02-19T00:38:30;1.17;;;0.88;;
78591;SDS011;67889;48.352;11.392;2023-02-19T00:40:59;1.33;;;0.80;;
78591;SDS011;67889;48.352;11.392;2023-02-19T00:43:25;1.13;;;0.93;;
78591;SDS011;67889;48.352;11.392;2023-02-19T00:45:50;2.03;;;0.80;;
78591;SDS011;67889;48.352;11.392;2023-02-19T00:48:15;0.80;;;0.80;;
78591;SDS011;67889;48.352;11.392;2023-02-19T00:50:41;1.55;;;1.17;;
78591;SDS011;67889;48.352;11.392;2023-02-19T00:53:06;1.60;;;1.30;;
78591;SDS011;67889;48.352;11.392;2023-02-19T00:55:32;1.20;;;1.03;;
78591;SDS011;67889;48.352;11.392;2023-02-19T00:57:57;1.53;;;0.90;;
78591;SDS011;67889;48.352;11.392;2023-02-19T01:00:22;1.37;;;0.80;;
78591;SDS011;67889;48.352;11.392;2023-02-19T01:02:48;1.40;;;0.82;;
78591;SDS011;67889;48.352;11.392;2023-02-19T01:05:13;1.30;;;1.03;;
78591;SDS011;67889;48.352;11.392;2023-02-19T01:07:38;1.10;;;1.00;;
78591;SDS011;67889;48.352;11.392;2023-02-19T01:10:04;2.17;;;1.15;;
78591;SDS011;67889;48.352;11.392;2023-02-19T01:12:30;1.42;;;1.33;;
78591;SDS011;67889;48.352;11.392;2023-02-19T01:14:56;1.77;;;0.80;;
78591;SDS011;67889;48.352;11.392;2023-02-19T01:17:21;1.98;;;0.75;;
78591;SDS011;67889;48.352;11.392;2023-02-19T01:19:47;1.27;;;0.80;;
78591;SDS011;67889;48.352;11.392;2023-02-19T01:22:12;1.05;;;0.82;;
78591;SDS011;67889;48.352;11.392;2023-02-19T01:24:37;2.47;;;1.07;;
78591;SDS011;67889;48.352;11.392;2023-02-19T01:27:03;2.20;;;1.23;;
78591;SDS011;67889;48.352;11.392;2023-02-19T01:29:28;1.15;;;0.70;;
78591;SDS011;67889;48.352;11.392;2023-02-19T01:31:53;1.33;;;0.70;;
78591;SDS011;67889;48.352;11.392;2023-02-19T01:34:19;2.53;;;0.90;;
78591;SDS011;67889;48.352;11.392;2023-02-19T01:36:44;1.33;;;0.83;;
78591;SDS011;67889;48.352;11.392;2023-02-19T01:39:09;1.87;;;1.00;;
78591;SDS011;67889;48.352;11.392;2023-02-19T01:41:36;2.28;;;1.10;;
78591;SDS011;67889;48.352;11.392;2023-02-19T01:46:35;2.42;;;1.17;;
78591;SDS011;67889;48.352;11.392;2023-02-19T01:49:07;1.75;;;1.10;;
78591;SDS011;67889;48.352;11.392;2023-02-19T01:51:37;1.95;;;1.10;;
78591;SDS011;67889;48.352;11.392;2023-02-19T01:54:06;2.30;;;0.80;;
78591;SDS011;67889;48.352;11.392;2023-02-19T01:56:35;1.33;;;1.10;;
78591;SDS011;67889;48.352;11.392;2023-02-19T01:59:04;1.30;;;0.98;;
78591;SDS011;67889;48.352;11.392;2023-02-19T02:01:30;1.35;;;1.20;;
78591;SDS011;67889;48.352;11.392;2023-02-19T02:03:56;1.83;;;1.10;;
78591;SDS011;67889;48.352;11.392;2023-02-19T02:06:23;0.98;;;0.90;;
78591;SDS011;67889;48.352;11.392;2023-02-19T02:08:53;1.38;;;1.20;;
78591;SDS011;67889;48.352;11.392;2023-02-19T02:11:40;1.63;;;1.02;;
78591;SDS011;67889;48.352;11.392;2023-02-19T02:14:09;1.15;;;0.90;;
78591;SDS011;67889;48.352;11.392;2023-02-19T02:24:32;1.30;;;1.20;;
78591;SDS011;67889;48.352;11.392;2023-02-19T02:36:04;1.45;;;1.05;;
78591;SDS011;67889;48.352;11.392;2023-02-19T02:38:35;1.00;;;0.93;;
78591;SDS011;67889;48.352;11.392;2023-02-19T02:41:03;2.13;;;0.93;;
78591;SDS011;67889;48.352;11.392;2023-02-19T02:43:30;1.17;;;1.00;;
78591;SDS011;67889;48.352;11.392;2023-02-19T02:45:55;1.65;;;1.10;;
78591;SDS011;67889;48.352;11.392;2023-02-19T02:48:25;1.35;;;1.00;;
78591;SDS011;67889;48.352;11.392;2023-02-19T02:51:03;2.78;;;1.00;;
78591;SDS011;67889;48.352;11.392;2023-02-19T02:56:26;1.45;;;1.23;;
78591;SDS011;67889;48.352;11.392;2023-02-19T02:58:54;2.70;;;1.33;;
78591;SDS011;67889;48.352;11.392;2023-02-19T03:01:23;1.38;;;1.02;;
78591;SDS011;67889;48.352;11.392;2023-02-19T03:04:14;2.38;;;1.33;;
78591;SDS011;67889;48.352;11.392;2023-02-19T03:06:48;1.95;;;1.30;;
78591;SDS011;67889;48.352;11.392;2023-02-19T03:11:48;1.80;;;0.90;;
78591;SDS011;67889;48.352;11.392;2023-02-19T03:14:38;1.45;;;1.02;;
78591;SDS011;67889;48.352;11.392;2023-02-19T03:17:33;4.53;;;1.00;;
78591;SDS011;67889;48.352;11.392;2023-02-19T03:20:23;1.50;;;1.20;;
78591;SDS011;67889;48.352;11.392;2023-02-19T03:22:49;1.70;;;1.00;;
78591;SDS011;67889;48.352;11.392;2023-02-19T03:28:07;3.20;;;1.15;;
78591;SDS011;67889;48.352;11.392;2023-02-19T03:30:35;1.63;;;0.98;;
78591;SDS011;67889;48.352;11.392;2023-02-19T03:33:10;2.10;;;1.38;;
78591;SDS011;67889;48.352;11.392;2023-02-19T03:35:41;2.67;;;1.00;;
78591;SDS011;67889;48.352;11.392;2023-02-19T03:38:14;3.08;;;1.30;;
78591;SDS011;67889;48.352;11.392;2023-02-19T03:41:03;1.65;;;1.08;;
78591;SDS011;67889;48.352;11.392;2023-02-19T03:43:36;2.20;;;1.25;;
78591;SDS011;67889;48.352;11.392;2023-02-19T03:48:37;2.97;;;1.30;;
78591;SDS011;67889;48.352;11.392;2023-02-19T03:51:21;3.78;;;1.50;;
78591;SDS011;67889;48.352;11.392;2023-02-19T03:54:06;2.22;;;1.23;;
78591;SDS011;67889;48.352;11.392;2023-02-19T03:57:03;1.67;;;1.25;;
78591;SDS011;67889;48.352;11.392;2023-02-19T03:59:42;1.55;;;1.25;;
78591;SDS011;67889;48.352;11.392;2023-02-19T04:02:18;1.70;;;1.10;;
78591;SDS011;67889;48.352;11.392;2023-02-19T04:05:10;1.40;;;1.02;;
78591;SDS011;67889;48.352;11.392;2023-02-19T04:07:38;2.03;;;1.20;;
78591;SDS011;67889;48.352;11.392;2023-02-19T04:10:09;1.95;;;1.50;;
78591;SDS011;67889;48.352;11.392;2023-02-19T04:12:36;1.70;;;1.48;;
78591;SDS011;67889;48.352;11.392;2023-02-19T04:15:06;3.28;;;1.25;;
78591;SDS011;67889;48.352;11.392;2023-02-19T04:17:36;2.00;;;1.33;;
78591;SDS011;67889;48.352;11.392;2023-02-19T04:20:08;1.70;;;1.17;;
78591;SDS011;67889;48.352;11.392;2023-02-19T04:22:35;2.58;;;1.40;;
78591;SDS011;67889;48.352;11.392;2023-02-19T04:25:02;1.77;;;1.30;;
78591;SDS011;67889;48.352;11.392;2023-02-19T04:27:28;1.52;;;1.40;;
78591;SDS011;67889;48.352;11.392;2023-02-19T04:29:53;1.80;;;1.30;;
78591;SDS011;67889;48.352;11.392;2023-02-19T04:32:19;4.03;;;1.65;;
78591;SDS011;67889;48.352;11.392;2023-02-19T04:34:44;1.45;;;1.13;;
78591;SDS011;67889;48.352;11.392;2023-02-19T04:37:09;3.27;;;1.10;;
78591;SDS011;67889;48.352;11.392;2023-02-19T04:39:35;1.63;;;1.10;;
78591;SDS011;67889;48.352;11.392;2023-02-19T04:42:00;0.80;;;0.80;;
78591;SDS011;67889;48.352;11.392;2023-02-19T04:44:26;2.22;;;1.30;;
78591;SDS011;67889;48.352;11.392;2023-02-19T04:46:51;2.03;;;1.27;;
78591;SDS011;67889;48.352;11.392;2023-02-19T04:49:16;2.83;;;1.10;;
78591;SDS011;67889;48.352;11.392;2023-02-19T04:51:42;1.45;;;1.13;;
78591;SDS011;67889;48.352;11.392;2023-02-19T04:54:07;2.93;;;1.70;;
78591;SDS011;67889;48.352;11.392;2023-02-19T04:56:33;2.50;;;1.08;;
78591;SDS011;67889;48.352;11.392;2023-02-19T04:58:58;1.63;;;1.42;;
78591;SDS011;67889;48.352;11.392;2023-02-19T05:01:23;1.70;;;1.20;;
78591;SDS011;67889;48.352;11.392;2023-02-19T05:03:49;1.80;;;1.35;;
78591;SDS011;67889;48.352;11.392;2023-02-19T05:06:15;4.50;;;1.50;;
78591;SDS011;67889;48.352;11.392;2023-02-19T05:08:40;2.15;;;1.40;;
78591;SDS011;67889;48.352;11.392;2023-02-19T05:11:06;1.67;;;1.10;;
78591;SDS011;67889;48.352;11.392;2023-02-19T05:13:37;1.98;;;1.05;;
78591;SDS011;67889;48.352;11.392;2023-02-19T05:16:08;1.55;;;1.02;;
78591;SDS011;67889;48.352;11.392;2023-02-19T05:18:40;2.55;;;1.27;;
78591;SDS011;67889;48.352;11.392;2023-02-19T05:21:07;3.63;;;1.35;;
78591;SDS011;67889;48.352;11.392;2023-02-19T05:23:33;1.52;;;1.38;;
78591;SDS011;67889;48.352;11.392;2023-02-19T05:26:03;1.23;;;1.00;;
78591;SDS011;67889;48.352;11.392;2023-02-19T05:28:29;2.58;;;1.33;;
78591;SDS011;67889;48.352;11.392;2023-02-19T05:30:55;1.50;;;1.02;;
78591;SDS011;67889;48.352;11.392;2023-02-19T05:33:22;1.88;;;1.23;;
78591;SDS011;67889;48.352;11.392;2023-02-19T05:35:49;4.45;;;1.25;;
78591;SDS011;67889;48.352;11.392;2023-02-19T05:38:17;2.22;;;1.40;;
78591;SDS011;67889;48.352;11.392;2023-02-19T05:40:43;2.03;;;1.33;;
78591;SDS011;67889;48.352;11.392;2023-02-19T05:43:09;1.73;;;1.30;;
78591;SDS011;67889;48.352;11.392;2023-02-19T05:45:35;1.33;;;1.15;;
78591;SDS011;67889;48.352;11.392;2023-02-19T05:48:01;2.20;;;1.67;;
78591;SDS011;67889;48.352;11.392;2023-02-19T05:50:28;4.05;;;1.42;;
78591;SDS011;67889;48.352;11.392;2023-02-19T05:52:53;1.63;;;1.38;;
78591;SDS011;67889;48.352;11.392;2023-02-19T05:55:18;1.93;;;1.33;;
78591;SDS011;67889;48.352;11.392;2023-02-19T05:57:45;1.45;;;1.23;;
78591;SDS011;67889;48.352;11.392;2023-02-19T06:00:12;1.63;;;1.38;;
78591;SDS011;67889;48.352;11.392;2023-02-19T06:02:40;1.58;;;1.38;;
78591;SDS011;67889;48.352;11.392;2023-02-19T06:05:06;1.33;;;1.15;;
78591;SDS011;67889;48.352;11.392;2023-02-19T06:07:31;2.55;;;1.50;;
78591;SDS011;67889;48.352;11.392;2023-02-19T06:09:57;2.83;;;1.50;;
78591;SDS011;67889;48.352;11.392;2023-02-19T06:12:23;1.50;;;0.90;;
78591;SDS011;67889;48.352;11.392;2023-02-19T06:14:48;2.05;;;1.85;;
78591;SDS011;67889;48.352;11.392;2023-02-19T06:17:14;2.78;;;1.60;;
78591;SDS011;67889;48.352;11.392;2023-02-19T06:19:39;1.38;;;1.27;;
78591;SDS011;67889;48.352;11.392;2023-02-19T06:22:05;1.75;;;1.52;;
78591;SDS011;67889;48.352;11.392;2023-02-19T06:24:30;3.45;;;1.38;;
78591;SDS011;67889;48.352;11.392;2023-02-19T06:26:55;1.77;;;1.67;;
78591;SDS011;67889;48.352;11.392;2023-02-19T06:29:21;3.25;;;1.30;;
78591;SDS011;67889;48.352;11.392;2023-02-19T06:31:46;2.95;;;1.80;;
78591;SDS011;67889;48.352;11.392;2023-02-19T06:34:12;2.65;;;1.63;;
78591;SDS011;67889;48.352;11.392;2023-02-19T06:36:37;3.90;;;1.77;;
78591;SDS011;67889;48.352;11.392;2023-02-19T06:39:03;1.98;;;1.48;;
78591;SDS011;67889;48.352;11.392;2023-02-19T06:41:29;2.75;;;1.45;;
78591;SDS011;67889;48.352;11.392;2023-02-19T06:43:58;1.80;;;1.45;;
78591;SDS011;67889;48.352;11.392;2023-02-19T06:46:23;2.38;;;1.65;;
78591;SDS011;67889;48.352;11.392;2023-02-19T06:48:49;3.38;;;1.77;;
78591;SDS011;67889;48.352;11.392;2023-02-19T06:51:19;1.85;;;1.13;;
78591;SDS011;67889;48.352;11.392;2023-02-19T06:53:47;2.05;;;1.42;;
78591;SDS011;67889;48.352;11.392;2023-02-19T06:58:47;3.30;;;1.50;;
78591;SDS011;67889;48.352;11.392;2023-02-19T07:01:12;1.63;;;1.35;;
78591;SDS011;67889;48.352;11.392;2023-02-19T07:03:37;3.03;;;1.50;;
78591;SDS011;67889;48.352;11.392;2023-02-19T07:06:03;2.17;;;1.40;;
78591;SDS011;67889;48.352;11.392;2023-02-19T07:08:28;2.05;;;1.50;;
78591;SDS011;67889;48.352;11.392;2023-02-19T07:10:54;1.80;;;1.27;;
78591;SDS011;67889;48.352;11.392;2023-02-19T07:13:21;2.40;;;1.40;;
78591;SDS011;67889;48.352;11.392;2023-02-19T07:15:47;2.78;;;1.60;;
78591;SDS011;67889;48.352;11.392;2023-02-19T07:18:13;3.10;;;1.50;;
78591;SDS011;67889;48.352;11.392;2023-02-19T07:20:38;1.83;;;1.20;;
78591;SDS011;67889;48.352;11.392;2023-02-19T07:23:03;2.93;;;1.50;;
78591;SDS011;67889;48.352;11.392;2023-02-19T07:25:28;2.60;;;1.57;;
78591;SDS011;67889;48.352;11.392;2023-02-19T07:27:54;1.97;;;1.77;;
78591;SDS011;67889;48.352;11.392;2023-02-19T07:30:19;3.40;;;1.80;;
78591;SDS011;67889;48.352;11.392;2023-02-19T07:32:44;2.47;;;1.87;;
78591;SDS011;67889;48.352;11.392;2023-02-19T07:35:10;2.77;;;1.80;;
78591;SDS011;67889;48.352;11.392;2023-02-19T07:37:35;2.60;;;1.90;;
78591;SDS011;67889;48.352;11.392;2023-02-19T07:40:00;4.20;;;1.70;;
78591;SDS011;67889;48.352;11.392;2023-02-19T07:42:26;2.97;;;2.05;;
78591;SDS011;67889;48.352;11.392;2023-02-19T07:44:51;2.65;;;1.58;;
78591;SDS011;67889;48.352;11.392;2023-02-19T07:47:17;2.47;;;1.63;;
78591;SDS011;67889;48.352;11.392;2023-02-19T07:49:42;2.53;;;2.20;;
78591;SDS011;67889;48.352;11.392;2023-02-19T07:52:07;1.97;;;1.77;;
78591;SDS011;67889;48.352;11.392;2023-02-19T07:54:33;2.27;;;1.37;;
78591;SDS011;67889;48.352;11.392;2023-02-19T07:56:58;2.47;;;1.60;;
78591;SDS011;67889;48.352;11.392;2023-02-19T07:59:23;2.97;;;2.35;;
78591;SDS011;67889;48.352;11.392;2023-02-19T08:01:49;3.03;;;1.50;;
78591;SDS011;67889;48.352;11.392;2023-02-19T08:04:33;2.47;;;1.85;;
78591;SDS011;67889;48.352;11.392;2023-02-19T08:06:58;1.83;;;1.40;;
78591;SDS011;67889;48.352;11.392;2023-02-19T08:09:23;1.20;;;1.07;;
78591;SDS011;67889;48.352;11.392;2023-02-19T08:11:49;2.63;;;1.63;;
78591;SDS011;67889;48.352;11.392;2023-02-19T08:14:33;1.55;;;1.25;;
78591;SDS011;67889;48.352;11.392;2023-02-19T08:16:58;2.45;;;1.45;;
78591;SDS011;67889;48.352;11.392;2023-02-19T08:19:23;1.70;;;1.35;;
78591;SDS011;67889;48.352;11.392;2023-02-19T08:21:49;1.50;;;1.00;;
78591;SDS011;67889;48.352;11.392;2023-02-19T08:24:14;1.67;;;1.58;;
78591;SDS011;67889;48.352;11.392;2023-02-19T08:26:40;2.78;;;1.77;;
78591;SDS011;67889;48.352;11.392;2023-02-19T08:29:05;1.63;;;1.40;;
78591;SDS011;67889;48.352;11.392;2023-02-19T08:31:31;1.58;;;1.30;;
78591;SDS011;67889;48.352;11.392;2023-02-19T08:33:57;1.85;;;1.67;;
78591;SDS011;67889;48.352;11.392;2023-02-19T08:36:22;2.45;;;1.38;;
78591;SDS011;67889;48.352;11.392;2023-02-19T08:38:48;3.83;;;1.80;;
78591;SDS011;67889;48.352;11.392;2023-02-19T08:41:13;2.00;;;1.30;;
78591;SDS011;67889;48.352;11.392;2023-02-19T08:43:39;0.60;;;0.60;;
78591;SDS011;67889;48.352;11.392;2023-02-19T08:46:06;1.23;;;0.40;;
78591;SDS011;67889;48.352;11.392;2023-02-19T08:48:34;1.05;;;0.30;;
78591;SDS011;67889;48.352;11.392;2023-02-19T08:51:00;0.40;;;0.30;;
78591;SDS011;67889;48.352;11.392;2023-02-19T08:53:28;0.35;;;0.30;;
78591;SDS011;67889;48.352;11.392;2023-02-19T08:55:55;0.30;;;0.30;;
78591;SDS011;67889;48.352;11.392;2023-02-19T08:58:20;1.08;;;0.30;;
78591;SDS011;67889;48.352;11.392;2023-02-19T09:00:46;0.55;;;0.45;;
78591;SDS011;67889;48.352;11.392;2023-02-19T09:03:12;0.47;;;0.40;;
78591;SDS011;67889;48.352;11.392;2023-02-19T09:05:37;0.97;;;0.67;;
78591;SDS011;67889;48.352;11.392;2023-02-19T09:08:03;1.23;;;0.85;;
78591;SDS011;67889;48.352;11.392;2023-02-19T09:10:29;1.13;;;1.00;;
78591;SDS011;67889;48.352;11.392;2023-02-19T09:12:54;1.48;;;0.98;;
78591;SDS011;67889;48.352;11.392;2023-02-19T09:15:19;1.43;;;1.00;;
78591;SDS011;67889;48.352;11.392;2023-02-19T09:17:49;0.80;;;0.70;;
78591;SDS011;67889;48.352;11.392;2023-02-19T09:20:15;1.10;;;0.98;;
78591;SDS011;67889;48.352;11.392;2023-02-19T09:22:41;0.93;;;0.70;;
78591;SDS011;67889;48.352;11.392;2023-02-19T09:25:06;1.83;;;0.80;;
78591;SDS011;67889;48.352;11.392;2023-02-19T09:27:31;0.90;;;0.63;;
78591;SDS011;67889;48.352;11.392;2023-02-19T09:29:57;1.13;;;0.60;;
78591;SDS011;67889;48.352;11.392;2023-02-19T09:32:23;1.98;;;0.60;;
78591;SDS011;67889;48.352;11.392;2023-02-19T09:34:48;0.40;;;0.40;;
78591;SDS011;67889;48.352;11.392;2023-02-19T09:37:14;0.40;;;0.40;;
78591;SDS011;67889;48.352;11.392;2023-02-19T09:39:39;1.00;;;0.80;;
78591;SDS011;67889;48.352;11.392;2023-02-19T09:42:10;5.77;;;1.67;;
78591;SDS011;67889;48.352;11.392;2023-02-19T09:44:41;1.13;;;0.65;;
78591;SDS011;67889;48.352;11.392;2023-02-19T09:47:16;0.93;;;0.68;;
78591;SDS011;67889;48.352;11.392;2023-02-19T09:49:45;0.40;;;0.40;;
78591;SDS011;67889;48.352;11.392;2023-02-19T09:54:44;1.35;;;0.70;;
78591;SDS011;67889;48.352;11.392;2023-02-19T09:57:13;0.60;;;0.40;;
78591;SDS011;67889;48.352;11.392;2023-02-19T09:59:43;1.10;;;0.40;;
78591;SDS011;67889;48.352;11.392;2023-02-19T10:02:12;0.98;;;0.70;;
78591;SDS011;67889;48.352;11.392;2023-02-19T10:04:40;2.20;;;1.02;;
78591;SDS011;67889;48.352;11.392;2023-02-19T10:07:13;2.15;;;0.40;;
78591;SDS011;67889;48.352;11.392;2023-02-19T10:09:40;0.35;;;0.30;;
78591;SDS011;67889;48.352;11.392;2023-02-19T10:12:15;0.30;;;0.30;;
78591;SDS011;67889;48.352;11.392;2023-02-19T10:14:47;0.45;;;0.20;;
78591;SDS011;67889;48.352;11.392;2023-02-19T10:17:20;0.50;;;0.50;;
78591;SDS011;67889;48.352;11.392;2023-02-19T10:19:48;0.68;;;0.50;;
78591;SDS011;67889;48.352;11.392;2023-02-19T10:22:14;0.73;;;0.68;;
78591;SDS011;67889;48.352;11.392;2023-02-19T10:24:39;0.52;;;0.43;;
78591;SDS011;67889;48.352;11.392;2023-02-19T10:27:13;0.90;;;0.47;;
78591;SDS011;67889;48.352;11.392;2023-02-19T10:29:39;0.80;;;0.50;;
78591;SDS011;67889;48.352;11.392;2023-02-19T10:34:44;0.45;;;0.30;;
78591;SDS011;67889;48.352;11.392;2023-02-19T10:37:11;0.40;;;0.40;;
78591;SDS011;67889;48.352;11.392;2023-02-19T10:39:41;0.38;;;0.22;;
78591;SDS011;67889;48.352;11.392;2023-02-19T10:42:19;1.08;;;0.75;;
78591;SDS011;67889;48.352;11.392;2023-02-19T10:44:47;0.30;;;0.25;;
78591;SDS011;67889;48.352;11.392;2023-02-19T10:47:17;0.77;;;0.40;;
78591;SDS011;67889;48.352;11.392;2023-02-19T10:49:46;0.40;;;0.40;;
78591;SDS011;67889;48.352;11.392;2023-02-19T10:54:45;0.85;;;0.50;;
78591;SDS011;67889;48.352;11.392;2023-02-19T10:59:50;0.22;;;0.22;;
78591;SDS011;67889;48.352;11.392;2023-02-19T11:02:17;0.50;;;0.40;;
78591;SDS011;67889;48.352;11.392;2023-02-19T11:07:37;0.50;;;0.28;;
78591;SDS011;67889;48.352;11.392;2023-02-19T11:10:17;0.57;;;0.30;;
78591;SDS011;67889;48.352;11.392;2023-02-19T11:12:46;0.65;;;0.32;;
78591;SDS011;67889;48.352;11.392;2023-02-19T11:20:56;0.25;;;0.25;;
78591;SDS011;67889;48.352;11.392;2023-02-19T11:23:26;0.20;;;0.20;;
78591;SDS011;67889;48.352;11.392;2023-02-19T11:25:54;0.90;;;0.50;;
78591;SDS011;67889;48.352;11.392;2023-02-19T11:30:54;0.95;;;0.40;;
78591;SDS011;67889;48.352;11.392;2023-02-19T11:33:36;1.02;;;0.63;;
78591;SDS011;67889;48.352;11.392;2023-02-19T11:38:40;1.17;;;0.50;;
78591;SDS011;67889;48.352;11.392;2023-02-19T11:47:19;0.43;;;0.40;;
78591;SDS011;67889;48.352;11.392;2023-02-19T11:52:36;0.68;;;0.50;;
78591;SDS011;67889;48.352;11.392;2023-02-19T11:55:17;0.47;;;0.47;;
78591;SDS011;67889;48.352;11.392;2023-02-19T11:58:27;0.20;;;0.20;;
78591;SDS011;67889;48.352;11.392;2023-02-19T12:01:07;0.63;;;0.40;;
78591;SDS011;67889;48.352;11.392;2023-02-19T12:04:02;0.47;;;0.40;;
78591;SDS011;67889;48.352;11.392;2023-02-19T12:09:25;0.90;;;0.70;;
78591;SDS011;67889;48.352;11.392;2023-02-19T12:11:57;0.40;;;0.40;;
78591;SDS011;67889;48.352;11.392;2023-02-19T12:14:46;0.35;;;0.35;;
78591;SDS011;67889;48.352;11.392;2023-02-19T12:19:58;0.40;;;0.38;;
78591;SDS011;67889;48.352;11.392;2023-02-19T12:25:38;0.57;;;0.38;;
78591;SDS011;67889;48.352;11.392;2023-02-19T12:31:03;0.30;;;0.30;;
78591;SDS011;67889;48.352;11.392;2023-02-19T12:33:45;0.52;;;0.30;;
78591;SDS011;67889;48.352;11.392;2023-02-19T12:39:08;0.47;;;0.47;;
78591;SDS011;67889;48.352;11.392;2023-02-19T12:42:27;0.40;;;0.30;;
78591;SDS011;67889;48.352;11.392;2023-02-19T12:45:16;2.25;;;0.43;;
78591;SDS011;67889;48.352;11.392;2023-02-19T12:47:52;0.40;;;0.30;;
78591;SDS011;67889;48.352;11.392;2023-02-19T12:50:24;2.47;;;0.40;;
78591;SDS011;67889;48.352;11.392;2023-02-19T12:52:53;1.50;;;0.52;;
78591;SDS011;67889;48.352;11.392;2023-02-19T12:55:25;3.00;;;0.40;;
78591;SDS011;67889;48.352;11.392;2023-02-19T12:57:54;0.20;;;0.20;;
78591;SDS011;67889;48.352;11.392;2023-02-19T13:05:58;1.52;;;0.50;;
78591;SDS011;67889;48.352;11.392;2023-02-19T13:11:02;1.92;;;1.50;;
78591;SDS011;67889;48.352;11.392;2023-02-19T13:13:35;2.22;;;0.80;;
78591;SDS011;67889;48.352;11.392;2023-02-19T13:16:15;2.28;;;0.63;;
78591;SDS011;67889;48.352;11.392;2023-02-19T13:21:16;2.92;;;1.15;;
78591;SDS011;67889;48.352;11.392;2023-02-19T13:24:03;4.45;;;1.02;;
78591;SDS011;67889;48.352;11.392;2023-02-19T13:26:42;1.65;;;0.80;;
78591;SDS011;67889;48.352;11.392;2023-02-19T13:36:56;3.45;;;0.60;;
78591;SDS011;67889;48.352;11.392;2023-02-19T13:39:23;2.65;;;0.98;;
78591;SDS011;67889;48.352;11.392;2023-02-19T13:41:49;0.90;;;0.40;;
78591;SDS011;67889;48.352;11.392;2023-02-19T13:44:18;1.33;;;0.30;;
78591;SDS011;67889;48.352;11.392;2023-02-19T13:46:46;2.33;;;0.35;;
78591;SDS011;67889;48.352;11.392;2023-02-19T13:52:01;0.55;;;0.50;;
78591;SDS011;67889;48.352;11.392;2023-02-19T13:54:47;0.63;;;0.45;;
78591;SDS011;67889;48.352;11.392;2023-02-19T13:59:46;0.52;;;0.47;;
78591;SDS011;67889;48.352;11.392;2023-02-19T14:02:23;1.02;;;0.47;;
78591;SDS011;67889;48.352;11.392;2023-02-19T14:05:01;0.50;;;0.40;;
78591;SDS011;67889;48.352;11.392;2023-02-19T14:07:52;1.42;;;0.50;;
78591;SDS011;67889;48.352;11.392;2023-02-19T14:30:50;1.17;;;0.50;;
78591;SDS011;67889;48.352;11.392;2023-02-19T14:33:43;2.00;;;0.95;;
78591;SDS011;67889;48.352;11.392;2023-02-19T14:39:11;3.92;;;0.63;;
78591;SDS011;67889;48.352;11.392;2023-02-19T14:41:47;0.45;;;0.45;;
78591;SDS011;67889;48.352;11.392;2023-02-19T14:44:23;4.53;;;0.70;;
78591;SDS011;67889;48.352;11.392;2023-02-19T14:47:05;3.75;;;0.65;;
78591;SDS011;67889;48.352;11.392;2023-02-19T14:49:39;1.10;;;0.70;;
78591;SDS011;67889;48.352;11.392;2023-02-19T14:52:56;0.90;;;0.50;;
78591;SDS011;67889;48.352;11.392;2023-02-19T14:55:09;1.15;;;0.82;;
78591;SDS011;67889;48.352;11.392;2023-02-19T14:57:43;1.65;;;0.90;;
78591;SDS011;67889;48.352;11.392;2023-02-19T15:06:07;0.73;;;0.60;;
78591;SDS011;67889;48.352;11.392;2023-02-19T15:08:39;1.25;;;0.50;;
78591;SDS011;67889;48.352;11.392;2023-02-19T15:11:09;0.65;;;0.63;;
78591;SDS011;67889;48.352;11.392;2023-02-19T15:13:40;0.50;;;0.40;;
78591;SDS011;67889;48.352;11.392;2023-02-19T15:16:14;0.88;;;0.63;;
78591;SDS011;67889;48.352;11.392;2023-02-19T15:18:45;0.70;;;0.40;;
78591;SDS011;67889;48.352;11.392;2023-02-19T15:21:22;0.40;;;0.40;;
78591;SDS011;67889;48.352;11.392;2023-02-19T15:24:11;0.47;;;0.30;;
78591;SDS011;67889;48.352;11.392;2023-02-19T15:26:49;1.60;;;0.63;;
78591;SDS011;67889;48.352;11.392;2023-02-19T15:29:18;3.30;;;0.65;;
78591;SDS011;67889;48.352;11.392;2023-02-19T15:31:49;0.40;;;0.40;;
78591;SDS011;67889;48.352;11.392;2023-02-19T15:34:23;0.70;;;0.35;;
78591;SDS011;67889;48.352;11.392;2023-02-19T15:36:51;0.65;;;0.38;;
78591;SDS011;67889;48.352;11.392;2023-02-19T15:39:24;0.43;;;0.40;;
78591;SDS011;67889;48.352;11.392;2023-02-19T15:41:58;0.75;;;0.45;;
78591;SDS011;67889;48.352;11.392;2023-02-19T15:44:31;0.57;;;0.55;;
78591;SDS011;67889;48.352;11.392;2023-02-19T15:47:23;0.70;;;0.45;;
78591;SDS011;67889;48.352;11.392;2023-02-19T15:50:28;0.47;;;0.40;;
78591;SDS011;67889;48.352;11.392;2023-02-19T15:53:03;0.50;;;0.40;;
78591;SDS011;67889;48.352;11.392;2023-02-19T15:55:43;1.25;;;0.82;;
78591;SDS011;67889;48.352;11.392;2023-02-19T15:58:29;0.47;;;0.47;;
78591;SDS011;67889;48.352;11.392;2023-02-19T16:01:20;1.50;;;0.88;;
78591;SDS011;67889;48.352;11.392;2023-02-19T16:03:49;0.88;;;0.40;;
78591;SDS011;67889;48.352;11.392;2023-02-19T16:06:16;0.77;;;0.70;;
78591;SDS011;67889;48.352;11.392;2023-02-19T16:08:57;1.27;;;0.70;;
78591;SDS011;67889;48.352;11.392;2023-02-19T16:11:28;2.33;;;0.70;;
78591;SDS011;67889;48.352;11.392;2023-02-19T16:14:14;1.05;;;0.60;;
78591;SDS011;67889;48.352;11.392;2023-02-19T16:16:53;1.05;;;0.45;;
78591;SDS011;67889;48.352;11.392;2023-02-19T16:19:22;2.15;;;0.77;;
78591;SDS011;67889;48.352;11.392;2023-02-19T16:21:48;1.30;;;0.68;;
78591;SDS011;67889;48.352;11.392;2023-02-19T16:26:55;1.63;;;0.75;;
78591;SDS011;67889;48.352;11.392;2023-02-19T16:29:29;2.88;;;1.13;;
78591;SDS011;67889;48.352;11.392;2023-02-19T16:31:57;4.15;;;1.25;;
78591;SDS011;67889;48.352;11.392;2023-02-19T16:42:39;6.28;;;2.83;;
78591;SDS011;67889;48.352;11.392;2023-02-19T16:45:30;2.20;;;1.50;;
78591;SDS011;67889;48.352;11.392;2023-02-19T16:47:57;2.72;;;1.30;;
78591;SDS011;67889;48.352;11.392;2023-02-19T16:50:23;3.15;;;2.03;;
78591;SDS011;67889;48.352;11.392;2023-02-19T16:53:00;7.00;;;2.67;;
78591;SDS011;67889;48.352;11.392;2023-02-19T16:55:28;8.07;;;2.85;;
78591;SDS011;67889;48.352;11.392;2023-02-19T16:57:56;3.88;;;1.73;;
78591;SDS011;67889;48.352;11.392;2023-02-19T17:00:26;2.47;;;1.20;;
78591;SDS011;67889;48.352;11.392;2023-02-19T17:05:49;6.57;;;2.53;;
78591;SDS011;67889;48.352;11.392;2023-02-19T17:10:52;4.50;;;2.10;;
78591;SDS011;67889;48.352;11.392;2023-02-19T17:13:17;2.07;;;1.20;;
78591;SDS011;67889;48.352;11.392;2023-02-19T17:15:43;2.97;;;1.43;;
78591;SDS011;67889;48.352;11.392;2023-02-19T17:18:09;5.00;;;1.67;;
78591;SDS011;67889;48.352;11.392;2023-02-19T17:20:35;1.85;;;1.20;;